createdAt,value
2022-11-27T00:01:34.737Z,0.70
2022-11-27T00:04:02.631Z,1.25
2022-11-27T00:06:31.812Z,0.80
2022-11-27T00:09:01.222Z,1.25
2022-11-27T00:11:30.420Z,0.90
2022-11-27T00:13:58.596Z,1.02
2022-11-27T00:16:28.017Z,0.45
2022-11-27T00:18:55.733Z,0.40
2022-11-27T00:21:34.810Z,0.80
2022-11-27T00:24:06.064Z,0.80
2022-11-27T00:26:37.770Z,1.17
2022-11-27T00:29:06.597Z,0.70
2022-11-27T00:31:37.352Z,0.63
2022-11-27T00:34:07.460Z,0.60
2022-11-27T00:36:36.100Z,0.60
2022-11-27T00:39:04.774Z,1.30
2022-11-27T00:41:32.553Z,0.30
2022-11-27T00:44:00.151Z,1.02
2022-11-27T00:46:34.877Z,0.93
2022-11-27T00:49:05.124Z,1.02
2022-11-27T00:51:33.212Z,1.05
2022-11-27T00:54:01.058Z,1.02
2022-11-27T00:56:31.686Z,1.63
2022-11-27T00:59:00.205Z,0.52
2022-11-27T01:01:31.041Z,0.90
2022-11-27T01:04:00.582Z,0.80
2022-11-27T01:06:29.311Z,0.73
2022-11-27T01:08:58.230Z,0.70
2022-11-27T01:11:29.087Z,0.70
2022-11-27T01:13:59.386Z,0.85
2022-11-27T01:16:29.594Z,0.45
2022-11-27T01:18:59.191Z,0.68
2022-11-27T01:21:30.406Z,0.70
2022-11-27T01:23:59.635Z,1.00
2022-11-27T01:26:27.868Z,0.43
2022-11-27T01:28:57.405Z,0.47
2022-11-27T01:31:28.173Z,0.55
2022-11-27T01:33:58.983Z,0.60
2022-11-27T01:36:27.500Z,0.55
2022-11-27T01:38:54.992Z,0.40
2022-11-27T01:41:26.058Z,0.52
2022-11-27T01:43:56.050Z,0.50
2022-11-27T01:46:43.716Z,1.45
2022-11-27T01:49:11.307Z,0.47
2022-11-27T01:51:47.023Z,0.40
2022-11-27T01:54:16.377Z,0.43
2022-11-27T01:56:46.234Z,0.63
2022-11-27T01:59:14.666Z,0.43
2022-11-27T02:01:42.248Z,1.00
2022-11-27T02:04:09.938Z,0.30
2022-11-27T02:06:37.536Z,0.60
2022-11-27T02:09:05.035Z,0.60
2022-11-27T02:11:54.328Z,0.50
2022-11-27T02:14:56.420Z,0.70
2022-11-27T02:17:49.883Z,0.45
2022-11-27T02:20:23.827Z,0.90
2022-11-27T02:23:24.903Z,0.35
2022-11-27T02:26:19.549Z,0.45
2022-11-27T02:29:12.622Z,0.45
2022-11-27T02:31:43.221Z,0.77
2022-11-27T02:34:19.967Z,0.60
2022-11-27T02:37:06.335Z,0.55
2022-11-27T02:39:44.546Z,0.60
2022-11-27T02:42:20.213Z,0.63
2022-11-27T02:45:03.043Z,0.47
2022-11-27T02:47:31.874Z,0.68
2022-11-27T02:50:00.521Z,0.50
2022-11-27T02:52:29.999Z,0.52
2022-11-27T02:55:03.295Z,0.63
2022-11-27T02:57:32.294Z,0.65
2022-11-27T03:00:01.253Z,0.65
2022-11-27T03:02:35.319Z,0.57
2022-11-27T03:05:06.620Z,0.65
2022-11-27T03:07:42.119Z,0.70
2022-11-27T03:10:21.808Z,0.50
2022-11-27T03:12:50.137Z,0.93
2022-11-27T03:15:18.312Z,0.50
2022-11-27T03:18:18.397Z,0.93
2022-11-27T03:20:49.623Z,0.95
2022-11-27T03:23:17.344Z,0.73
2022-11-27T03:25:44.942Z,0.40
2022-11-27T03:28:13.840Z,0.82
2022-11-27T03:30:41.711Z,0.88
2022-11-27T03:33:09.305Z,0.98
2022-11-27T03:35:37.285Z,0.80
2022-11-27T03:38:04.996Z,1.15
2022-11-27T03:40:49.802Z,0.65
2022-11-27T03:43:26.484Z,0.68
2022-11-27T03:46:23.143Z,0.75
2022-11-27T03:48:57.240Z,0.50
2022-11-27T03:51:34.286Z,0.80
2022-11-27T03:54:14.101Z,1.27
2022-11-27T03:57:08.029Z,0.60
2022-11-27T03:59:40.804Z,0.35
2022-11-27T04:02:15.337Z,0.43
2022-11-27T04:04:42.971Z,0.40
2022-11-27T04:07:17.448Z,0.47
2022-11-27T04:09:45.200Z,0.50
2022-11-27T04:12:12.660Z,0.50
2022-11-27T04:14:41.649Z,0.98
2022-11-27T04:17:09.520Z,0.57
2022-11-27T04:19:37.085Z,0.47
2022-11-27T04:22:04.561Z,0.60
2022-11-27T04:24:32.069Z,0.60
2022-11-27T04:26:59.549Z,0.60
2022-11-27T04:29:27.098Z,0.50
2022-11-27T04:31:54.671Z,0.90
2022-11-27T04:34:22.324Z,0.60
2022-11-27T04:36:49.861Z,0.52
2022-11-27T04:39:17.467Z,0.43
2022-11-27T04:41:45.028Z,0.82
2022-11-27T04:44:13.151Z,0.73
2022-11-27T04:46:40.721Z,1.00
2022-11-27T04:49:09.568Z,1.10
2022-11-27T04:51:37.103Z,1.05
2022-11-27T04:54:04.762Z,0.90
2022-11-27T04:56:32.310Z,0.75
2022-11-27T04:58:59.954Z,0.60
2022-11-27T05:01:27.595Z,0.65
2022-11-27T05:03:55.165Z,1.20
2022-11-27T05:06:22.855Z,0.43
2022-11-27T05:08:50.405Z,0.60
2022-11-27T05:11:18.214Z,1.02
2022-11-27T05:13:45.781Z,0.60
2022-11-27T05:16:13.397Z,0.73
2022-11-27T05:18:41.068Z,0.57
2022-11-27T05:21:09.041Z,0.52
2022-11-27T05:23:36.567Z,0.35
2022-11-27T05:26:04.129Z,0.82
2022-11-27T05:28:31.633Z,0.68
2022-11-27T05:30:59.681Z,1.02
2022-11-27T05:33:27.271Z,1.08
2022-11-27T05:35:54.732Z,0.43
2022-11-27T05:38:22.364Z,0.60
2022-11-27T05:40:50.011Z,0.65
2022-11-27T05:43:17.660Z,1.20
2022-11-27T05:45:45.124Z,0.80
2022-11-27T05:48:12.646Z,0.57
2022-11-27T05:50:40.360Z,1.25
2022-11-27T05:53:07.835Z,1.00
2022-11-27T05:55:35.427Z,0.60
2022-11-27T05:58:02.947Z,0.82
2022-11-27T06:00:30.747Z,0.90
2022-11-27T06:02:58.477Z,1.00
2022-11-27T06:05:26.069Z,1.35
2022-11-27T06:07:53.593Z,1.05
2022-11-27T06:10:21.121Z,0.88
2022-11-27T06:12:48.722Z,2.58
2022-11-27T06:15:16.241Z,2.97
2022-11-27T06:17:43.798Z,1.70
2022-11-27T06:20:11.453Z,1.77
2022-11-27T06:22:39.177Z,1.30
2022-11-27T06:25:07.016Z,1.08
2022-11-27T06:27:35.799Z,2.17
2022-11-27T06:30:05.259Z,4.15
2022-11-27T06:32:32.776Z,2.90
2022-11-27T06:35:00.451Z,3.25
2022-11-27T06:37:28.012Z,2.42
2022-11-27T06:39:55.515Z,1.65
2022-11-27T06:42:23.094Z,1.95
2022-11-27T06:44:50.558Z,2.22
2022-11-27T06:47:21.209Z,1.35
2022-11-27T06:49:49.353Z,1.30
2022-11-27T06:52:16.878Z,1.02
2022-11-27T06:54:44.637Z,1.63
2022-11-27T06:57:14.494Z,0.95
2022-11-27T06:59:42.332Z,1.20
2022-11-27T07:02:14.741Z,1.27
2022-11-27T07:04:42.546Z,1.17
2022-11-27T07:07:10.303Z,1.70
2022-11-27T07:09:40.591Z,1.75
2022-11-27T07:12:08.576Z,1.33
2022-11-27T07:14:36.023Z,1.65
2022-11-27T07:17:03.697Z,1.40
2022-11-27T07:19:31.235Z,1.40
2022-11-27T07:21:58.800Z,1.48
2022-11-27T07:24:26.317Z,1.40
2022-11-27T07:26:53.784Z,1.58
2022-11-27T07:29:21.291Z,0.73
2022-11-27T07:31:51.246Z,1.50
2022-11-27T07:34:21.583Z,1.00
2022-11-27T07:36:49.639Z,1.27
2022-11-27T07:39:33.752Z,1.10
2022-11-27T07:42:36.514Z,1.27
2022-11-27T07:44:55.635Z,2.08
2022-11-27T07:47:23.129Z,1.77
2022-11-27T07:49:50.612Z,2.22
2022-11-27T07:52:18.073Z,3.10
2022-11-27T07:54:45.555Z,2.80
2022-11-27T07:57:13.107Z,1.88
2022-11-27T07:59:45.734Z,3.95
2022-11-27T08:02:15.697Z,2.05
2022-11-27T08:04:43.472Z,2.50
2022-11-27T08:07:11.555Z,1.75
2022-11-27T08:09:40.313Z,1.08
2022-11-27T08:12:07.894Z,1.13
2022-11-27T08:14:35.582Z,1.15
2022-11-27T08:17:03.173Z,2.03
2022-11-27T08:19:30.877Z,2.47
2022-11-27T08:21:58.435Z,2.78
2022-11-27T08:24:25.924Z,2.40
2022-11-27T08:26:53.589Z,2.58
2022-11-27T08:29:21.279Z,2.90
2022-11-27T08:31:51.532Z,3.65
2022-11-27T08:34:22.180Z,3.60
2022-11-27T08:36:49.768Z,3.90
2022-11-27T08:39:17.585Z,2.67
2022-11-27T08:41:45.062Z,2.38
2022-11-27T08:44:12.636Z,2.63
2022-11-27T08:46:40.143Z,1.30
2022-11-27T08:49:10.787Z,4.47
2022-11-27T08:51:38.339Z,3.42
2022-11-27T08:54:05.985Z,2.47
2022-11-27T08:56:33.564Z,3.72
2022-11-27T08:59:03.845Z,5.15
2022-11-27T09:01:33.204Z,2.35
2022-11-27T09:04:00.978Z,4.15
2022-11-27T09:06:31.032Z,3.10
2022-11-27T09:09:00.621Z,2.05
2022-11-27T09:11:31.154Z,2.47
2022-11-27T09:14:00.296Z,2.47
2022-11-27T09:16:29.159Z,1.85
2022-11-27T09:18:57.925Z,2.75
2022-11-27T09:21:27.479Z,6.40
2022-11-27T09:23:55.959Z,7.47
2022-11-27T09:26:28.324Z,5.53
2022-11-27T09:29:02.430Z,4.50
2022-11-27T09:31:32.314Z,6.07
2022-11-27T09:33:59.859Z,9.20
2022-11-27T09:36:27.800Z,6.95
2022-11-27T09:38:56.858Z,6.82
2022-11-27T09:41:39.477Z,4.13
2022-11-27T09:44:29.497Z,2.33
2022-11-27T09:47:01.035Z,3.03
2022-11-27T09:50:01.123Z,3.53
2022-11-27T09:52:46.626Z,5.57
2022-11-27T09:55:25.011Z,8.27
2022-11-27T09:58:04.598Z,8.85
2022-11-27T10:00:32.470Z,4.65
2022-11-27T10:03:00.719Z,6.38
2022-11-27T10:06:04.335Z,6.03
2022-11-27T10:08:58.076Z,3.67
2022-11-27T10:11:46.401Z,6.03
2022-11-27T10:14:31.847Z,2.20
2022-11-27T10:17:23.248Z,1.90
2022-11-27T10:19:53.647Z,2.05
2022-11-27T10:22:25.163Z,2.03
2022-11-27T10:25:20.443Z,1.70
2022-11-27T10:28:06.681Z,0.98
2022-11-27T10:33:17.448Z,0.35
2022-11-27T10:35:48.651Z,1.83
2022-11-27T10:38:26.656Z,2.75
2022-11-27T10:41:28.398Z,1.50
2022-11-27T10:44:16.586Z,1.00
2022-11-27T10:46:44.248Z,0.50
2022-11-27T10:49:11.720Z,1.02
2022-11-27T10:51:41.721Z,1.50
2022-11-27T10:54:22.049Z,1.95
2022-11-27T10:57:08.333Z,1.60
2022-11-27T10:59:43.810Z,0.60
2022-11-27T11:02:33.099Z,0.50
2022-11-27T11:05:45.069Z,1.27
2022-11-27T11:08:21.357Z,0.52
2022-11-27T11:10:52.002Z,0.60
2022-11-27T11:13:27.848Z,0.63
2022-11-27T11:16:01.060Z,1.20
2022-11-27T11:18:34.150Z,0.80
2022-11-27T11:21:05.367Z,0.77
2022-11-27T11:23:39.377Z,0.65
2022-11-27T11:26:47.520Z,0.68
2022-11-27T11:29:39.734Z,1.50
2022-11-27T11:32:21.087Z,1.23
2022-11-27T11:35:05.151Z,0.93
2022-11-27T11:37:35.143Z,1.20
2022-11-27T11:40:20.756Z,1.02
2022-11-27T11:42:54.990Z,1.02
2022-11-27T11:45:23.105Z,0.68
2022-11-27T11:47:55.859Z,1.20
2022-11-27T11:50:43.960Z,0.73
2022-11-27T11:53:32.761Z,3.08
2022-11-27T11:56:18.939Z,2.10
2022-11-27T11:58:46.496Z,0.90
2022-11-27T12:01:32.381Z,1.20
2022-11-27T12:06:59.971Z,1.52
2022-11-27T12:10:12.995Z,4.30
2022-11-27T12:13:00.291Z,1.30
2022-11-27T12:16:04.750Z,0.70
2022-11-27T12:18:42.788Z,0.75
2022-11-27T12:21:16.385Z,0.82
2022-11-27T12:24:11.272Z,0.80
2022-11-27T12:27:07.139Z,0.65
2022-11-27T12:29:46.487Z,0.30
2022-11-27T12:32:32.204Z,0.50
2022-11-27T12:35:41.564Z,3.78
2022-11-27T12:38:20.911Z,2.72
2022-11-27T12:40:48.306Z,0.57
2022-11-27T12:43:26.255Z,0.70
2022-11-27T12:46:24.060Z,4.95
2022-11-27T12:49:19.733Z,0.50
2022-11-27T12:51:53.425Z,0.50
2022-11-27T12:54:32.032Z,0.32
2022-11-27T12:57:03.959Z,0.30
2022-11-27T12:59:34.264Z,0.00
2022-11-27T13:02:42.544Z,0.50
2022-11-27T13:05:16.264Z,0.20
2022-11-27T13:07:59.149Z,0.45
2022-11-27T13:10:31.621Z,2.72
2022-11-27T13:13:22.283Z,5.57
2022-11-27T13:16:01.514Z,6.40
2022-11-27T13:19:05.840Z,4.18
2022-11-27T13:21:36.379Z,5.00
2022-11-27T13:24:04.368Z,4.47
2022-11-27T13:26:52.981Z,3.45
2022-11-27T13:29:37.479Z,4.78
2022-11-27T13:32:07.179Z,2.95
2022-11-27T13:34:46.922Z,4.07
2022-11-27T13:37:37.516Z,3.50
2022-11-27T13:40:12.732Z,1.95
2022-11-27T13:42:46.609Z,2.42
2022-11-27T13:45:27.671Z,3.30
2022-11-27T13:47:57.034Z,2.30
2022-11-27T13:50:30.819Z,2.10
2022-11-27T13:53:06.206Z,1.90
2022-11-27T13:55:40.032Z,1.75
2022-11-27T13:58:08.322Z,1.48
2022-11-27T14:00:40.254Z,0.90
2022-11-27T14:03:20.686Z,1.15
2022-11-27T14:05:48.535Z,1.38
2022-11-27T14:08:19.633Z,1.20
2022-11-27T14:11:08.723Z,1.15
2022-11-27T14:13:46.299Z,1.10
2022-11-27T14:16:35.880Z,0.85
2022-11-27T14:19:06.911Z,0.55
2022-11-27T14:21:40.938Z,0.85
2022-11-27T14:24:25.273Z,0.73
2022-11-27T14:26:54.254Z,0.93
2022-11-27T14:29:23.481Z,1.70
2022-11-27T14:32:02.230Z,1.65
2022-11-27T14:34:32.048Z,2.00
2022-11-27T14:37:00.353Z,1.42
2022-11-27T14:39:34.036Z,1.25
2022-11-27T14:42:04.194Z,1.83
2022-11-27T14:44:32.496Z,1.83
2022-11-27T14:47:03.838Z,1.55
2022-11-27T14:49:33.507Z,1.73
2022-11-27T14:52:07.788Z,2.08
2022-11-27T14:54:38.082Z,1.23
2022-11-27T14:57:07.453Z,2.20
2022-11-27T14:59:34.947Z,1.45
2022-11-27T15:02:11.736Z,1.98
2022-11-27T15:04:43.797Z,2.55
2022-11-27T15:07:24.275Z,1.25
2022-11-27T15:09:55.236Z,2.03
2022-11-27T15:12:24.842Z,1.67
2022-11-27T15:15:01.378Z,1.33
2022-11-27T15:17:31.744Z,1.42
2022-11-27T15:20:01.088Z,1.13
2022-11-27T15:22:28.571Z,1.15
2022-11-27T15:25:01.879Z,1.92
2022-11-27T15:27:43.927Z,0.70
2022-11-27T15:30:16.871Z,1.02
2022-11-27T15:32:52.855Z,1.52
2022-11-27T15:37:56.449Z,1.65
2022-11-27T15:40:36.157Z,1.63
2022-11-27T15:43:14.318Z,1.88
2022-11-27T15:45:44.205Z,1.85
2022-11-27T15:48:18.050Z,1.60
2022-11-27T15:50:51.383Z,1.35
2022-11-27T15:53:22.247Z,1.25
2022-11-27T15:55:50.396Z,1.10
2022-11-27T15:58:18.096Z,1.60
2022-11-27T16:00:45.708Z,5.22
2022-11-27T16:03:14.268Z,5.07
2022-11-27T16:05:42.117Z,2.38
2022-11-27T16:08:16.178Z,1.73
2022-11-27T16:10:44.016Z,1.25
2022-11-27T16:13:11.574Z,2.50
2022-11-27T16:15:39.116Z,2.13
2022-11-27T16:18:07.285Z,1.23
2022-11-27T16:20:34.907Z,1.35
2022-11-27T16:23:02.435Z,1.65
2022-11-27T16:25:30.044Z,1.60
2022-11-27T16:28:02.493Z,2.05
2022-11-27T16:30:32.450Z,1.60
2022-11-27T16:33:00.034Z,1.00
2022-11-27T16:35:27.559Z,0.68
2022-11-27T16:37:55.163Z,1.02
2022-11-27T16:40:23.297Z,0.90
2022-11-27T16:42:51.028Z,1.58
2022-11-27T16:45:19.794Z,1.40
2022-11-27T16:47:49.199Z,1.83
2022-11-27T16:50:18.211Z,1.85
2022-11-27T16:52:52.828Z,2.35
2022-11-27T16:55:25.085Z,2.75
2022-11-27T16:57:54.066Z,1.80
2022-11-27T17:00:21.814Z,2.10
2022-11-27T17:02:49.401Z,3.28
2022-11-27T17:05:17.068Z,2.53
2022-11-27T17:07:44.578Z,2.25
2022-11-27T17:10:12.544Z,1.63
2022-11-27T17:12:40.049Z,2.75
2022-11-27T17:15:08.110Z,2.78
2022-11-27T17:17:40.335Z,2.17
2022-11-27T17:20:10.835Z,3.15
2022-11-27T17:22:41.158Z,3.92
2022-11-27T17:25:11.317Z,4.32
2022-11-27T17:27:39.236Z,4.25
2022-11-27T17:30:07.969Z,4.35
2022-11-27T17:32:37.115Z,4.20
2022-11-27T17:35:06.152Z,3.30
2022-11-27T17:37:33.668Z,4.57
2022-11-27T17:43:12.970Z,3.33
2022-11-27T17:45:41.739Z,4.30
2022-11-27T17:48:15.841Z,3.60
2022-11-27T17:50:54.936Z,3.33
2022-11-27T17:53:28.849Z,3.35
2022-11-27T17:56:01.554Z,4.00
2022-11-27T17:58:46.667Z,4.03
2022-11-27T18:01:39.617Z,3.95
2022-11-27T18:04:11.888Z,4.55
2022-11-27T18:06:39.937Z,2.85
2022-11-27T18:09:09.721Z,2.42
2022-11-27T18:11:40.178Z,2.80
2022-11-27T18:14:23.263Z,2.05
2022-11-27T18:16:52.117Z,1.90
2022-11-27T18:19:23.832Z,2.58
2022-11-27T18:21:56.437Z,1.40
2022-11-27T18:24:25.309Z,2.13
2022-11-27T18:27:10.354Z,4.38
2022-11-27T18:29:45.005Z,2.65
2022-11-27T18:32:22.984Z,1.70
2022-11-27T18:34:53.090Z,1.00
2022-11-27T18:37:21.106Z,2.55
2022-11-27T18:39:48.703Z,2.17
2022-11-27T18:42:16.354Z,1.80
2022-11-27T18:44:45.052Z,3.28
2022-11-27T18:47:14.930Z,2.85
2022-11-27T18:49:44.539Z,2.25
2022-11-27T18:52:13.497Z,2.90
2022-11-27T18:54:41.462Z,2.92
2022-11-27T18:57:10.149Z,2.13
2022-11-27T18:59:39.325Z,2.88
2022-11-27T19:02:07.459Z,2.88
2022-11-27T19:04:37.434Z,1.65
2022-11-27T19:07:05.200Z,1.50
2022-11-27T19:09:32.797Z,2.72
2022-11-27T19:12:00.898Z,1.75
2022-11-27T19:14:28.543Z,1.75
2022-11-27T19:16:56.610Z,2.50
2022-11-27T19:19:53.450Z,2.35
2022-11-27T19:22:13.791Z,1.48
2022-11-27T19:24:42.432Z,1.40
2022-11-27T19:27:10.101Z,1.17
2022-11-27T19:29:38.072Z,1.05
2022-11-27T19:32:05.652Z,2.83
2022-11-27T19:34:33.347Z,1.60
2022-11-27T19:37:00.901Z,2.95
2022-11-27T19:39:28.844Z,2.67
2022-11-27T19:41:58.019Z,2.13
2022-11-27T19:44:26.284Z,1.73
2022-11-27T19:46:53.877Z,2.30
2022-11-27T19:49:21.509Z,2.03
2022-11-27T19:51:49.892Z,1.60
2022-11-27T19:54:20.051Z,2.38
2022-11-27T19:56:47.937Z,1.27
2022-11-27T19:59:15.472Z,1.60
2022-11-27T20:01:44.248Z,2.65
2022-11-27T20:04:13.031Z,2.55
2022-11-27T20:06:41.141Z,2.42
2022-11-27T20:09:09.280Z,2.00
2022-11-27T20:11:37.042Z,3.15
2022-11-27T20:14:06.690Z,2.53
2022-11-27T20:16:36.097Z,3.67
2022-11-27T20:19:05.521Z,3.72
2022-11-27T20:21:36.824Z,2.45
2022-11-27T20:24:04.800Z,2.63
2022-11-27T20:26:37.130Z,3.25
2022-11-27T20:29:06.229Z,2.45
2022-11-27T20:31:49.014Z,2.55
2022-11-27T20:34:22.269Z,2.03
2022-11-27T20:36:50.203Z,2.70
2022-11-27T20:39:21.720Z,2.80
2022-11-27T20:41:51.853Z,2.28
2022-11-27T20:44:19.949Z,2.80
2022-11-27T20:46:47.667Z,2.63
2022-11-27T20:49:16.346Z,1.70
2022-11-27T20:52:17.562Z,2.83
2022-11-27T20:54:45.080Z,2.55
2022-11-27T20:57:14.234Z,2.35
2022-11-27T20:59:42.992Z,1.35
2022-11-27T21:02:12.066Z,1.20
2022-11-27T21:04:39.670Z,0.80
2022-11-27T21:07:07.162Z,1.42
2022-11-27T21:09:35.191Z,1.98
2022-11-27T21:12:04.789Z,1.55
2022-11-27T21:14:32.931Z,1.40
2022-11-27T21:17:04.869Z,1.05
2022-11-27T21:19:34.873Z,1.40
2022-11-27T21:22:02.594Z,2.67
2022-11-27T21:24:30.106Z,2.60
2022-11-27T21:26:58.047Z,2.75
2022-11-27T21:29:27.748Z,2.10
2022-11-27T21:31:57.077Z,1.75
2022-11-27T21:34:25.433Z,2.10
2022-11-27T21:36:53.046Z,1.40
2022-11-27T21:39:21.017Z,2.28
2022-11-27T21:41:51.256Z,1.80
2022-11-27T21:44:20.991Z,1.88
2022-11-27T21:46:49.344Z,2.05
2022-11-27T21:49:20.342Z,0.95
2022-11-27T21:51:54.550Z,1.48
2022-11-27T21:54:29.692Z,1.45
2022-11-27T21:56:57.363Z,1.35
2022-11-27T21:59:24.981Z,1.52
2022-11-27T22:01:52.786Z,1.38
2022-11-27T22:04:21.316Z,1.92
2022-11-27T22:06:48.948Z,2.42
2022-11-27T22:09:16.791Z,2.22
2022-11-27T22:11:46.197Z,2.13
2022-11-27T22:14:15.744Z,2.30
2022-11-27T22:16:46.203Z,2.03
2022-11-27T22:19:15.149Z,2.45
2022-11-27T22:21:44.547Z,2.15
2022-11-27T22:24:18.268Z,1.73
2022-11-27T22:26:47.852Z,2.80
2022-11-27T22:29:15.744Z,2.38
2022-11-27T22:31:43.240Z,2.22
2022-11-27T22:34:10.994Z,1.02
2022-11-27T22:36:39.228Z,1.85
2022-11-27T22:39:09.115Z,1.55
2022-11-27T22:41:37.993Z,3.30
2022-11-27T22:44:11.142Z,2.97
2022-11-27T22:46:40.935Z,1.85
2022-11-27T22:49:10.846Z,2.17
2022-11-27T22:51:39.133Z,1.65
2022-11-27T22:54:09.868Z,1.58
2022-11-27T22:56:37.628Z,1.13
2022-11-27T22:59:31.037Z,1.45
2022-11-27T23:01:54.142Z,1.70
2022-11-27T23:04:21.729Z,1.15
2022-11-27T23:06:49.299Z,1.58
2022-11-27T23:09:18.916Z,2.75
2022-11-27T23:11:47.214Z,1.83
2022-11-27T23:14:14.839Z,1.10
2022-11-27T23:16:42.714Z,1.20
2022-11-27T23:19:11.549Z,1.83
2022-11-27T23:21:39.589Z,1.27
2022-11-27T23:24:10.213Z,1.92
2022-11-27T23:26:37.728Z,0.73
2022-11-27T23:29:05.372Z,1.20
2022-11-27T23:31:35.855Z,1.20
2022-11-27T23:35:06.891Z,1.23
2022-11-27T23:37:51.564Z,1.40
2022-11-27T23:40:19.269Z,1.20
2022-11-27T23:42:46.749Z,1.02
2022-11-27T23:45:14.264Z,1.50
2022-11-27T23:47:41.719Z,1.27
2022-11-27T23:50:09.562Z,0.80
2022-11-27T23:52:37.061Z,1.75
2022-11-27T23:55:04.741Z,1.15
2022-11-27T23:57:32.328Z,1.80
2022-11-27T23:59:59.831Z,0.90
